createdAt,value
2018-03-02T00:00:04.732Z,998.53
2018-03-02T00:01:04.747Z,998.51
2018-03-02T00:02:04.722Z,998.53
2018-03-02T00:03:05.786Z,998.47
2018-03-02T00:04:04.717Z,998.52
2018-03-02T00:05:04.770Z,998.47
2018-03-02T00:06:04.725Z,998.45
2018-03-02T00:07:04.784Z,998.52
2018-03-02T00:08:04.715Z,998.48
2018-03-02T00:09:04.805Z,998.51
2018-03-02T00:10:04.711Z,998.35
2018-03-02T00:11:04.833Z,998.39
2018-03-02T00:12:04.744Z,998.40
2018-03-02T00:13:04.721Z,998.41
2018-03-02T00:14:04.714Z,998.40
2018-03-02T00:15:04.707Z,998.42
2018-03-02T00:16:04.699Z,998.44
2018-03-02T00:17:04.706Z,998.37
2018-03-02T00:18:04.717Z,998.41
2018-03-02T00:19:04.714Z,998.36
2018-03-02T00:20:04.703Z,998.51
2018-03-02T00:21:04.711Z,998.48
2018-03-02T00:22:04.702Z,998.50
2018-03-02T00:23:04.690Z,998.45
2018-03-02T00:24:04.688Z,998.45
2018-03-02T00:25:05.693Z,998.40
2018-03-02T00:26:04.692Z,998.42
2018-03-02T00:27:04.683Z,998.36
2018-03-02T00:28:04.685Z,998.33
2018-03-02T00:29:05.695Z,998.22
2018-03-02T00:30:04.681Z,998.23
2018-03-02T00:31:04.680Z,998.23
2018-03-02T00:32:04.672Z,998.23
2018-03-02T00:33:04.676Z,998.23
2018-03-02T00:34:04.681Z,998.23
2018-03-02T00:35:04.680Z,998.26
2018-03-02T00:36:04.665Z,998.25
2018-03-02T00:37:04.678Z,998.25
2018-03-02T00:38:04.678Z,998.32
2018-03-02T00:39:04.660Z,998.32
2018-03-02T00:40:04.662Z,998.26
2018-03-02T00:41:04.670Z,998.28
2018-03-02T00:42:04.653Z,998.26
2018-03-02T00:43:04.661Z,998.26
2018-03-02T00:44:04.660Z,998.28
2018-03-02T00:45:04.664Z,998.22
2018-03-02T00:46:04.651Z,998.24
2018-03-02T00:47:04.656Z,998.19
2018-03-02T00:48:04.645Z,998.19
2018-03-02T00:49:04.657Z,998.16
2018-03-02T00:50:04.653Z,998.15
2018-03-02T00:51:04.645Z,998.21
2018-03-02T00:52:04.664Z,998.13
2018-03-02T00:53:04.646Z,998.14
2018-03-02T00:54:04.643Z,998.13
2018-03-02T00:55:04.635Z,998.12
2018-03-02T00:56:04.633Z,998.00
2018-03-02T00:57:05.645Z,998.01
2018-03-02T00:58:04.632Z,997.98
2018-03-02T00:59:04.636Z,997.94
2018-03-02T01:00:04.620Z,997.92
2018-03-02T01:01:04.631Z,997.94
2018-03-02T01:02:04.632Z,997.94
2018-03-02T01:03:05.529Z,997.95
2018-03-02T01:04:04.616Z,998.04
2018-03-02T01:05:04.614Z,998.05
2018-03-02T01:06:04.609Z,998.04
2018-03-02T01:07:04.627Z,998.02
2018-03-02T01:08:04.622Z,998.05
2018-03-02T01:09:04.648Z,998.02
2018-03-02T01:10:04.606Z,998.08
2018-03-02T01:11:04.621Z,998.05
2018-03-02T01:12:04.614Z,998.00
2018-03-02T01:13:04.626Z,997.98
2018-03-02T01:14:04.624Z,997.93
2018-03-02T01:15:05.602Z,997.93
2018-03-02T01:16:04.614Z,997.90
2018-03-02T01:17:04.616Z,997.93
2018-03-02T01:18:04.597Z,997.91
2018-03-02T01:19:05.592Z,997.86
2018-03-02T01:20:04.601Z,997.94
2018-03-02T01:21:04.595Z,997.92
2018-03-02T01:22:04.586Z,997.88
2018-03-02T01:23:05.585Z,997.94
2018-03-02T01:24:04.591Z,997.88
2018-03-02T01:25:04.576Z,997.87
2018-03-02T01:26:04.579Z,997.85
2018-03-02T01:27:04.585Z,997.82
2018-03-02T01:28:04.580Z,997.82
2018-03-02T01:29:04.575Z,997.73
2018-03-02T01:30:04.569Z,997.69
2018-03-02T01:31:05.572Z,997.64
2018-03-02T01:32:04.579Z,997.68
2018-03-02T01:33:04.569Z,997.59
2018-03-02T01:34:04.563Z,997.68
2018-03-02T01:35:04.568Z,997.54
2018-03-02T01:36:04.562Z,997.54
2018-03-02T01:37:04.564Z,997.47
2018-03-02T01:38:04.554Z,997.57
2018-03-02T01:39:04.566Z,997.46
2018-03-02T01:40:04.567Z,997.43
2018-03-02T01:41:06.556Z,997.48
2018-03-02T01:42:04.547Z,997.48
2018-03-02T01:43:04.550Z,997.54
2018-03-02T01:44:04.540Z,997.45
2018-03-02T01:45:04.541Z,997.49
2018-03-02T01:46:04.539Z,997.43
2018-03-02T01:47:04.560Z,997.44
2018-03-02T01:48:04.535Z,997.41
2018-03-02T01:49:04.548Z,997.48
2018-03-02T01:50:04.533Z,997.52
2018-03-02T01:51:04.532Z,997.42
2018-03-02T01:52:04.521Z,997.48
2018-03-02T01:53:04.527Z,997.44
2018-03-02T01:54:04.527Z,997.47
2018-03-02T01:55:04.531Z,997.41
2018-03-02T01:56:04.517Z,997.42
2018-03-02T01:57:04.519Z,997.39
2018-03-02T01:58:04.516Z,997.37
2018-03-02T01:59:04.517Z,997.46
2018-03-02T02:00:04.518Z,997.40
2018-03-02T02:01:04.522Z,997.34
2018-03-02T02:02:04.502Z,997.45
2018-03-02T02:03:05.514Z,997.35
2018-03-02T02:04:04.501Z,997.39
2018-03-02T02:05:04.505Z,997.32
2018-03-02T02:06:04.499Z,997.31
2018-03-02T02:07:04.502Z,997.27
2018-03-02T02:08:04.523Z,997.28
2018-03-02T02:09:05.505Z,997.30
2018-03-02T02:10:04.492Z,997.25
2018-03-02T02:11:04.498Z,997.27
2018-03-02T02:12:04.493Z,997.27
2018-03-02T02:13:04.497Z,997.27
2018-03-02T02:14:04.485Z,997.20
2018-03-02T02:15:05.494Z,997.20
2018-03-02T02:16:04.471Z,997.17
2018-03-02T02:17:06.482Z,997.12
2018-03-02T02:18:04.486Z,997.15
2018-03-02T02:19:04.478Z,997.10
2018-03-02T02:20:04.471Z,997.12
2018-03-02T02:21:04.491Z,997.13
2018-03-02T02:22:04.464Z,997.18
2018-03-02T02:23:04.468Z,997.21
2018-03-02T02:24:04.462Z,997.20
2018-03-02T02:25:04.477Z,997.08
2018-03-02T02:26:04.472Z,997.11
2018-03-02T02:27:04.461Z,996.92
2018-03-02T02:28:04.452Z,997.06
2018-03-02T02:29:06.489Z,997.04
2018-03-02T02:30:04.456Z,997.08
2018-03-02T02:31:04.470Z,996.97
2018-03-02T02:32:04.450Z,997.03
2018-03-02T02:33:04.445Z,997.08
2018-03-02T02:34:04.443Z,997.02
2018-03-02T02:35:04.466Z,997.04
2018-03-02T02:36:04.440Z,997.03
2018-03-02T02:37:05.441Z,997.02
2018-03-02T02:38:04.432Z,997.02
2018-03-02T02:39:04.433Z,997.06
2018-03-02T02:40:04.436Z,997.07
2018-03-02T02:41:04.432Z,997.03
2018-03-02T02:42:04.449Z,997.02
2018-03-02T02:43:04.435Z,997.07
2018-03-02T02:44:04.422Z,997.05
2018-03-02T02:45:05.432Z,997.17
2018-03-02T02:46:04.418Z,997.08
2018-03-02T02:47:04.420Z,997.07
2018-03-02T02:48:04.414Z,997.10
2018-03-02T02:49:05.420Z,997.15
2018-03-02T02:50:04.403Z,997.05
2018-03-02T02:51:04.416Z,997.06
2018-03-02T02:52:04.404Z,997.08
2018-03-02T02:53:04.409Z,997.06
2018-03-02T02:54:04.402Z,996.99
2018-03-02T02:55:04.403Z,997.06
2018-03-02T02:56:04.406Z,997.05
2018-03-02T02:57:04.394Z,997.07
2018-03-02T02:58:04.389Z,997.10
2018-03-02T02:59:04.409Z,997.03
2018-03-02T03:00:04.393Z,997.04
2018-03-02T03:01:04.402Z,997.06
2018-03-02T03:02:04.394Z,997.03
2018-03-02T03:03:04.384Z,997.02
2018-03-02T03:04:04.384Z,997.00
2018-03-02T03:05:04.389Z,996.99
2018-03-02T03:06:04.378Z,997.00
2018-03-02T03:07:04.381Z,996.95
2018-03-02T03:08:04.364Z,997.01
2018-03-02T03:09:04.398Z,996.92
2018-03-02T03:10:04.402Z,996.95
2018-03-02T03:11:04.373Z,996.94
2018-03-02T03:12:04.365Z,996.90
2018-03-02T03:13:04.408Z,996.92
2018-03-02T03:14:04.356Z,996.97
2018-03-02T03:15:04.352Z,996.94
2018-03-02T03:16:04.348Z,996.91
2018-03-02T03:17:04.355Z,996.89
2018-03-02T03:18:04.343Z,996.93
2018-03-02T03:19:04.351Z,996.91
2018-03-02T03:20:04.337Z,996.85
2018-03-02T03:21:04.341Z,996.93
2018-03-02T03:22:04.335Z,996.95
2018-03-02T03:23:04.337Z,996.87
2018-03-02T03:24:04.333Z,996.92
2018-03-02T03:25:04.340Z,996.85
2018-03-02T03:26:04.329Z,996.81
2018-03-02T03:27:04.330Z,996.82
2018-03-02T03:28:04.321Z,996.86
2018-03-02T03:29:04.326Z,996.87
2018-03-02T03:30:04.326Z,996.84
2018-03-02T03:31:04.321Z,996.79
2018-03-02T03:32:04.317Z,996.78
2018-03-02T03:33:04.319Z,996.80
2018-03-02T03:34:04.311Z,996.75
2018-03-02T03:35:04.314Z,996.78
2018-03-02T03:36:04.312Z,996.74
2018-03-02T03:37:04.315Z,996.78
2018-03-02T03:38:04.304Z,996.68
2018-03-02T03:39:04.305Z,996.81
2018-03-02T03:40:04.296Z,996.76
2018-03-02T03:41:04.296Z,996.80
2018-03-02T03:42:04.289Z,996.65
2018-03-02T03:43:04.309Z,996.72
2018-03-02T03:44:04.289Z,996.70
2018-03-02T03:45:04.291Z,996.64
2018-03-02T03:46:04.284Z,996.67
2018-03-02T03:47:04.285Z,996.69
2018-03-02T03:48:04.280Z,996.68
2018-03-02T03:49:04.281Z,996.68
2018-03-02T03:50:04.302Z,996.64
2018-03-02T03:51:04.279Z,996.58
2018-03-02T03:52:04.268Z,996.57
2018-03-02T03:53:04.268Z,996.56
2018-03-02T03:54:04.264Z,996.53
2018-03-02T03:55:04.263Z,996.50
2018-03-02T03:56:04.258Z,996.60
2018-03-02T03:57:04.264Z,996.52
2018-03-02T03:58:04.284Z,996.61
2018-03-02T03:59:04.256Z,996.54
2018-03-02T04:00:04.252Z,996.63
2018-03-02T04:01:04.267Z,996.55
2018-03-02T04:02:04.245Z,996.54
2018-03-02T04:03:04.252Z,996.55
2018-03-02T04:04:04.250Z,996.49
2018-03-02T04:05:04.242Z,996.51
2018-03-02T04:06:04.234Z,996.52
2018-03-02T04:07:05.243Z,996.46
2018-03-02T04:08:04.252Z,996.44
2018-03-02T04:09:04.245Z,996.46
2018-03-02T04:10:04.225Z,996.46
2018-03-02T04:11:04.240Z,996.36
2018-03-02T04:12:04.233Z,996.41
2018-03-02T04:13:04.237Z,996.42
2018-03-02T04:14:04.216Z,996.38
2018-03-02T04:15:06.112Z,996.39
2018-03-02T04:16:04.224Z,996.40
2018-03-02T04:17:04.206Z,996.39
2018-03-02T04:18:04.216Z,996.33
2018-03-02T04:19:04.203Z,996.39
2018-03-02T04:20:04.209Z,996.37
2018-03-02T04:21:04.205Z,996.26
2018-03-02T04:22:04.202Z,996.31
2018-03-02T04:23:04.207Z,996.34
2018-03-02T04:24:04.200Z,996.28
2018-03-02T04:25:04.192Z,996.29
2018-03-02T04:26:04.201Z,996.29
2018-03-02T04:27:04.189Z,996.34
2018-03-02T04:28:05.198Z,996.30
2018-03-02T04:29:04.188Z,996.26
2018-03-02T04:30:04.195Z,996.29
2018-03-02T04:31:04.206Z,996.27
2018-03-02T04:32:04.183Z,996.33
2018-03-02T04:33:04.172Z,996.26
2018-03-02T04:34:04.172Z,996.39
2018-03-02T04:35:04.170Z,996.37
2018-03-02T04:36:04.175Z,996.28
2018-03-02T04:37:04.158Z,996.32
2018-03-02T04:38:04.162Z,996.37
2018-03-02T04:39:04.156Z,996.34
2018-03-02T04:40:04.163Z,996.36
2018-03-02T04:41:04.162Z,996.30
2018-03-02T04:42:04.157Z,996.40
2018-03-02T04:43:04.153Z,996.26
2018-03-02T04:44:04.157Z,996.26
2018-03-02T04:45:04.143Z,996.34
2018-03-02T04:46:04.148Z,996.27
2018-03-02T04:47:04.141Z,996.30
2018-03-02T04:48:04.141Z,996.27
2018-03-02T04:49:04.137Z,996.32
2018-03-02T04:50:04.151Z,996.22
2018-03-02T04:51:04.136Z,996.23
2018-03-02T04:52:04.129Z,996.27
2018-03-02T04:53:04.133Z,996.16
2018-03-02T04:54:04.136Z,996.27
2018-03-02T04:55:04.143Z,996.16
2018-03-02T04:56:04.120Z,996.27
2018-03-02T04:57:04.117Z,996.26
2018-03-02T04:58:04.114Z,996.20
2018-03-02T04:59:04.110Z,996.23
2018-03-02T05:00:04.115Z,996.21
2018-03-02T05:01:04.108Z,996.17
2018-03-02T05:02:04.177Z,996.10
2018-03-02T05:03:04.099Z,996.14
2018-03-02T05:04:04.106Z,996.09
2018-03-02T05:05:04.102Z,996.01
2018-03-02T05:06:04.148Z,996.07
2018-03-02T05:07:04.086Z,996.00
2018-03-02T05:08:04.085Z,996.02
2018-03-02T05:09:04.115Z,996.01
2018-03-02T05:10:04.127Z,996.04
2018-03-02T05:11:04.084Z,996.03
2018-03-02T05:12:04.081Z,996.04
2018-03-02T05:13:04.082Z,996.09
2018-03-02T05:14:04.084Z,996.03
2018-03-02T05:15:04.074Z,996.01
2018-03-02T05:16:04.077Z,996.00
2018-03-02T05:17:04.068Z,996.00
2018-03-02T05:18:05.069Z,996.00
2018-03-02T05:19:04.064Z,995.98
2018-03-02T05:20:05.079Z,995.96
2018-03-02T05:21:04.103Z,995.96
2018-03-02T05:22:04.058Z,995.96
2018-03-02T05:23:04.050Z,996.04
2018-03-02T05:24:08.605Z,995.83
2018-03-02T05:25:04.049Z,995.91
2018-03-02T05:26:06.052Z,995.82
2018-03-02T05:27:04.040Z,995.90
2018-03-02T05:28:05.047Z,995.82
2018-03-02T05:29:04.034Z,995.84
2018-03-02T05:30:04.033Z,995.83
2018-03-02T05:31:04.028Z,995.79
2018-03-02T05:32:04.035Z,995.78
2018-03-02T05:33:04.045Z,995.79
2018-03-02T05:34:04.039Z,995.81
2018-03-02T05:35:04.018Z,995.82
2018-03-02T05:36:10.619Z,995.84
2018-03-02T05:37:04.019Z,995.81
2018-03-02T05:38:04.029Z,995.80
2018-03-02T05:39:04.017Z,995.91
2018-03-02T05:40:04.006Z,995.84
2018-03-02T05:41:03.998Z,995.81
2018-03-02T05:42:04.008Z,995.82
2018-03-02T05:43:04.037Z,995.83
2018-03-02T05:44:05.004Z,995.78
2018-03-02T05:45:04.022Z,995.83
2018-03-02T05:46:03.995Z,995.79
2018-03-02T05:47:03.990Z,995.83
2018-03-02T05:48:03.999Z,995.84
2018-03-02T05:49:03.983Z,995.86
2018-03-02T05:50:03.991Z,995.82
2018-03-02T05:51:03.978Z,995.82
2018-03-02T05:52:03.977Z,995.83
2018-03-02T05:53:03.994Z,995.80
2018-03-02T05:54:04.114Z,995.72
2018-03-02T05:55:03.981Z,995.75
2018-03-02T05:56:03.972Z,995.78
2018-03-02T05:57:03.962Z,995.70
2018-03-02T05:58:03.969Z,995.73
2018-03-02T05:59:03.971Z,995.72
2018-03-02T06:00:03.978Z,995.71
2018-03-02T06:01:03.953Z,995.76
2018-03-02T06:02:04.955Z,995.77
2018-03-02T06:03:03.951Z,995.73
2018-03-02T06:04:05.954Z,995.75
2018-03-02T06:05:03.949Z,995.74
2018-03-02T06:06:03.946Z,995.84
2018-03-02T06:07:03.942Z,995.72
2018-03-02T06:08:03.940Z,995.81
2018-03-02T06:09:03.934Z,995.77
2018-03-02T06:10:03.933Z,995.67
2018-03-02T06:11:04.046Z,995.70
2018-03-02T06:12:03.923Z,995.71
2018-03-02T06:13:03.944Z,995.75
2018-03-02T06:14:03.917Z,995.71
2018-03-02T06:15:04.007Z,995.74
2018-03-02T06:16:03.919Z,995.74
2018-03-02T06:17:04.021Z,995.68
2018-03-02T06:18:03.911Z,995.68
2018-03-02T06:19:03.919Z,995.71
2018-03-02T06:20:03.904Z,995.79
2018-03-02T06:21:04.966Z,995.74
2018-03-02T06:22:03.900Z,995.72
2018-03-02T06:23:06.000Z,995.69
2018-03-02T06:24:03.891Z,995.72
2018-03-02T06:25:03.924Z,995.71
2018-03-02T06:26:03.886Z,995.70
2018-03-02T06:27:03.934Z,995.62
2018-03-02T06:28:03.883Z,995.60
2018-03-02T06:29:03.945Z,995.57
2018-03-02T06:30:03.876Z,995.59
2018-03-02T06:31:03.958Z,995.53
2018-03-02T06:32:04.005Z,995.53
2018-03-02T06:33:03.979Z,995.55
2018-03-02T06:34:03.868Z,995.51
2018-03-02T06:35:03.898Z,995.50
2018-03-02T06:36:03.859Z,995.51
2018-03-02T06:37:03.926Z,995.46
2018-03-02T06:38:03.854Z,995.42
2018-03-02T06:39:03.912Z,995.40
2018-03-02T06:40:03.856Z,995.37
2018-03-02T06:41:03.924Z,995.47
2018-03-02T06:42:03.850Z,995.40
2018-03-02T06:43:04.014Z,995.35
2018-03-02T06:44:03.839Z,995.39
2018-03-02T06:45:03.850Z,995.32
2018-03-02T06:46:03.840Z,995.36
2018-03-02T06:47:03.864Z,995.31
2018-03-02T06:48:03.828Z,995.32
2018-03-02T06:49:03.881Z,995.47
2018-03-02T06:50:03.833Z,995.35
2018-03-02T06:51:04.917Z,995.32
2018-03-02T06:52:03.826Z,995.33
2018-03-02T06:53:03.903Z,995.34
2018-03-02T06:54:03.815Z,995.34
2018-03-02T06:55:03.922Z,995.39
2018-03-02T06:56:03.834Z,995.36
2018-03-02T06:57:04.858Z,995.43
2018-03-02T06:58:03.809Z,995.42
2018-03-02T06:59:03.846Z,995.39
2018-03-02T07:00:03.797Z,995.33
2018-03-02T07:01:03.889Z,995.33
2018-03-02T07:02:03.799Z,995.35
2018-03-02T07:03:03.871Z,995.30
2018-03-02T07:04:03.797Z,995.33
2018-03-02T07:05:03.882Z,995.31
2018-03-02T07:06:03.788Z,995.33
2018-03-02T07:07:03.782Z,995.28
2018-03-02T07:08:03.788Z,995.25
2018-03-02T07:09:04.784Z,995.28
2018-03-02T07:10:03.777Z,995.29
2018-03-02T07:11:03.805Z,995.22
2018-03-02T07:12:03.769Z,995.28
2018-03-02T07:13:03.789Z,995.28
2018-03-02T07:14:03.777Z,995.30
2018-03-02T07:15:04.776Z,995.31
2018-03-02T07:16:03.756Z,995.31
2018-03-02T07:17:04.762Z,995.34
2018-03-02T07:18:03.752Z,995.27
2018-03-02T07:19:03.756Z,995.37
2018-03-02T07:20:03.743Z,995.39
2018-03-02T07:21:03.747Z,995.31
2018-03-02T07:22:03.743Z,995.34
2018-03-02T07:23:03.738Z,995.32
2018-03-02T07:24:03.753Z,995.31
2018-03-02T07:25:03.737Z,995.37
2018-03-02T07:26:03.730Z,995.27
2018-03-02T07:27:03.727Z,995.33
2018-03-02T07:28:03.741Z,995.32
2018-03-02T07:29:03.752Z,995.32
2018-03-02T07:30:03.720Z,995.29
2018-03-02T07:31:03.725Z,995.29
2018-03-02T07:32:03.705Z,995.30
2018-03-02T07:33:03.801Z,995.22
2018-03-02T07:34:03.716Z,995.27
2018-03-02T07:35:03.812Z,995.29
2018-03-02T07:36:03.707Z,995.32
2018-03-02T07:37:03.794Z,995.30
2018-03-02T07:38:03.696Z,995.35
2018-03-02T07:39:03.817Z,995.27
2018-03-02T07:40:03.686Z,995.36
2018-03-02T07:41:03.790Z,995.26
2018-03-02T07:42:03.684Z,995.32
2018-03-02T07:43:04.731Z,995.26
2018-03-02T07:44:03.708Z,995.30
2018-03-02T07:45:03.717Z,995.25
2018-03-02T07:46:03.688Z,995.24
2018-03-02T07:47:03.738Z,995.22
2018-03-02T07:48:03.704Z,995.09
2018-03-02T07:49:03.660Z,995.10
2018-03-02T07:50:03.666Z,995.06
2018-03-02T07:51:03.651Z,995.12
2018-03-02T07:52:03.650Z,995.12
2018-03-02T07:53:03.668Z,995.09
2018-03-02T07:54:03.645Z,995.15
2018-03-02T07:55:03.650Z,995.13
2018-03-02T07:56:03.642Z,995.07
2018-03-02T07:57:04.386Z,995.10
2018-03-02T07:58:03.663Z,995.00
2018-03-02T07:59:03.634Z,994.99
2018-03-02T08:00:03.709Z,994.97
2018-03-02T08:01:03.633Z,995.01
2018-03-02T08:02:03.633Z,994.93
2018-03-02T08:03:03.685Z,994.92
2018-03-02T08:04:03.637Z,994.98
2018-03-02T08:05:03.618Z,995.05
2018-03-02T08:06:03.613Z,994.89
2018-03-02T08:07:03.610Z,994.89
2018-03-02T08:08:03.602Z,994.87
2018-03-02T08:09:03.667Z,994.92
2018-03-02T08:10:03.632Z,994.83
2018-03-02T08:11:03.600Z,994.90
2018-03-02T08:12:03.622Z,994.84
2018-03-02T08:13:03.608Z,994.92
2018-03-02T08:14:03.598Z,994.94
2018-03-02T08:15:03.597Z,995.04
2018-03-02T08:16:03.590Z,995.03
2018-03-02T08:17:03.575Z,994.95
2018-03-02T08:18:03.580Z,994.90
2018-03-02T08:19:03.584Z,994.96
2018-03-02T08:20:03.629Z,995.01
2018-03-02T08:22:03.582Z,994.99
2018-03-02T08:23:03.569Z,994.96
2018-03-02T08:24:03.566Z,994.95
2018-03-02T08:25:03.569Z,994.83
2018-03-02T08:26:03.617Z,994.91
2018-03-02T08:27:03.571Z,994.87
2018-03-02T08:28:03.547Z,994.89
2018-03-02T08:29:03.555Z,994.89
2018-03-02T08:30:03.581Z,994.94
2018-03-02T08:31:03.560Z,994.81
2018-03-02T08:32:03.535Z,994.87
2018-03-02T08:33:03.541Z,994.83
2018-03-02T08:34:03.538Z,994.82
2018-03-02T08:35:03.535Z,994.83
2018-03-02T08:36:03.700Z,994.80
2018-03-02T08:37:03.584Z,994.78
2018-03-02T08:38:03.555Z,994.82
2018-03-02T08:39:03.540Z,994.91
2018-03-02T08:40:03.565Z,994.75
2018-03-02T08:41:03.517Z,994.87
2018-03-02T08:42:03.586Z,994.85
2018-03-02T08:43:03.546Z,994.81
2018-03-02T08:44:03.598Z,994.76
2018-03-02T08:45:03.505Z,994.79
2018-03-02T08:46:03.658Z,994.79
2018-03-02T08:47:03.518Z,994.70
2018-03-02T08:48:03.538Z,994.75
2018-03-02T08:49:03.498Z,994.75
2018-03-02T08:50:03.535Z,994.75
2018-03-02T08:51:03.489Z,994.73
2018-03-02T08:52:03.548Z,994.75
2018-03-02T08:53:03.485Z,994.68
2018-03-02T08:54:03.558Z,994.74
2018-03-02T08:55:03.487Z,994.75
2018-03-02T08:56:03.576Z,994.87
2018-03-02T08:57:03.544Z,994.74
2018-03-02T08:58:03.730Z,994.85
2018-03-02T08:59:03.466Z,994.76
2018-03-02T09:00:03.507Z,994.80
2018-03-02T09:01:03.465Z,994.75
2018-03-02T09:02:03.515Z,994.72
2018-03-02T09:03:03.490Z,994.84
2018-03-02T09:04:03.527Z,994.76
2018-03-02T09:05:03.476Z,994.76
2018-03-02T09:06:03.537Z,994.68
2018-03-02T09:07:03.449Z,994.61
2018-03-02T09:08:03.565Z,994.56
2018-03-02T09:09:03.450Z,994.63
2018-03-02T09:10:03.466Z,994.64
2018-03-02T09:11:03.441Z,994.60
2018-03-02T09:12:03.492Z,994.58
2018-03-02T09:13:03.444Z,994.64
2018-03-02T09:14:03.491Z,994.54
2018-03-02T09:15:03.450Z,994.58
2018-03-02T09:16:03.503Z,994.55
2018-03-02T09:17:03.444Z,994.60
2018-03-02T09:18:03.526Z,994.75
2018-03-02T09:19:03.428Z,994.56
2018-03-02T09:20:03.530Z,994.66
2018-03-02T09:21:03.421Z,994.67
2018-03-02T09:22:03.527Z,994.57
2018-03-02T09:23:03.422Z,994.51
2018-03-02T09:24:03.524Z,994.57
2018-03-02T09:25:03.418Z,994.60
2018-03-02T09:26:03.437Z,994.59
2018-03-02T09:27:03.417Z,994.52
2018-03-02T09:28:03.472Z,994.47
2018-03-02T09:29:03.415Z,994.46
2018-03-02T09:30:03.531Z,994.48
2018-03-02T09:31:03.399Z,994.47
2018-03-02T09:32:03.483Z,994.54
2018-03-02T09:33:03.401Z,994.54
2018-03-02T09:34:03.496Z,994.43
2018-03-02T09:35:03.398Z,994.38
2018-03-02T09:36:03.457Z,994.40
2018-03-02T09:37:03.382Z,994.43
2018-03-02T09:38:03.425Z,994.30
2018-03-02T09:39:03.384Z,994.31
2018-03-02T09:40:08.147Z,994.28
2018-03-02T09:41:03.383Z,994.42
2018-03-02T09:42:03.455Z,994.46
2018-03-02T09:43:03.404Z,994.37
2018-03-02T09:44:03.469Z,994.42
2018-03-02T09:45:03.373Z,994.49
2018-03-02T09:46:03.475Z,994.40
2018-03-02T09:47:03.380Z,994.43
2018-03-02T09:48:03.462Z,994.39
2018-03-02T09:49:03.368Z,994.42
2018-03-02T09:50:08.180Z,994.49
2018-03-02T09:51:03.370Z,994.47
2018-03-02T09:52:03.377Z,994.50
2018-03-02T09:53:03.373Z,994.49
2018-03-02T09:54:03.449Z,994.45
2018-03-02T09:55:03.388Z,994.45
2018-03-02T09:56:03.409Z,994.34
2018-03-02T09:57:03.349Z,994.40
2018-03-02T09:58:03.422Z,994.47
2018-03-02T09:59:03.346Z,994.35
2018-03-02T10:00:04.457Z,994.34
2018-03-02T10:01:03.350Z,994.37
2018-03-02T10:02:03.498Z,994.33
2018-03-02T10:03:03.350Z,994.33
2018-03-02T10:04:03.367Z,994.31
2018-03-02T10:05:03.371Z,994.35
2018-03-02T10:06:03.379Z,994.27
2018-03-02T10:07:03.345Z,994.20
2018-03-02T10:08:04.424Z,994.34
2018-03-02T10:09:03.329Z,994.32
2018-03-02T10:10:03.427Z,994.28
2018-03-02T10:11:03.327Z,994.30
2018-03-02T10:12:03.380Z,994.20
2018-03-02T10:13:03.329Z,994.07
2018-03-02T10:14:03.333Z,994.26
2018-03-02T10:15:03.316Z,994.12
2018-03-02T10:16:03.331Z,994.26
2018-03-02T10:17:03.330Z,994.16
2018-03-02T10:18:03.313Z,994.09
2018-03-02T10:19:03.346Z,994.07
2018-03-02T10:20:03.314Z,994.52
2018-03-02T10:21:03.378Z,994.15
2018-03-02T10:22:03.334Z,994.18
2018-03-02T10:23:03.316Z,994.09
2018-03-02T10:24:03.311Z,994.17
2018-03-02T10:25:03.306Z,994.18
2018-03-02T10:26:03.310Z,994.38
2018-03-02T10:27:03.308Z,994.43
2018-03-02T10:28:03.308Z,994.10
2018-03-02T10:29:03.305Z,994.11
2018-03-02T10:30:03.303Z,994.19
2018-03-02T10:31:03.297Z,994.25
2018-03-02T10:32:03.309Z,994.19
2018-03-02T10:33:03.297Z,994.21
2018-03-02T10:34:03.294Z,994.13
2018-03-02T10:35:03.293Z,994.11
2018-03-02T10:36:03.300Z,994.27
2018-03-02T10:37:03.302Z,994.23
2018-03-02T10:38:03.293Z,994.23
2018-03-02T10:39:03.283Z,994.23
2018-03-02T10:40:04.284Z,994.18
2018-03-02T10:41:03.322Z,994.18
2018-03-02T10:42:03.280Z,994.17
2018-03-02T10:43:03.279Z,994.14
2018-03-02T10:44:03.284Z,994.07
2018-03-02T10:45:03.300Z,994.13
2018-03-02T10:46:03.382Z,994.12
2018-03-02T10:47:03.277Z,994.13
2018-03-02T10:48:03.291Z,994.15
2018-03-02T10:49:03.276Z,994.14
2018-03-02T10:50:03.303Z,994.20
2018-03-02T10:51:03.322Z,994.15
2018-03-02T10:52:03.363Z,994.06
2018-03-02T10:53:03.270Z,994.07
2018-03-02T10:54:03.353Z,994.10
2018-03-02T10:55:03.263Z,994.00
2018-03-02T10:56:03.270Z,994.09
2018-03-02T10:57:03.332Z,994.00
2018-03-02T10:58:03.262Z,993.90
2018-03-02T10:59:03.259Z,994.02
2018-03-02T11:00:03.260Z,994.04
2018-03-02T11:01:03.354Z,994.06
2018-03-02T11:02:03.259Z,994.00
2018-03-02T11:03:03.259Z,994.03
2018-03-02T11:04:03.253Z,993.95
2018-03-02T11:05:03.312Z,994.05
2018-03-02T11:06:03.257Z,994.03
2018-03-02T11:07:03.305Z,994.08
2018-03-02T11:08:03.269Z,994.05
2018-03-02T11:09:03.329Z,994.08
2018-03-02T11:10:03.290Z,994.10
2018-03-02T11:11:03.290Z,994.04
2018-03-02T11:12:03.331Z,993.97
2018-03-02T11:13:03.247Z,993.94
2018-03-02T11:14:03.342Z,993.97
2018-03-02T11:15:03.250Z,993.96
2018-03-02T11:16:03.351Z,993.90
2018-03-02T11:17:03.335Z,993.99
2018-03-02T11:18:03.424Z,993.89
2018-03-02T11:19:03.245Z,993.84
2018-03-02T11:20:03.282Z,993.98
2018-03-02T11:21:03.272Z,994.06
2018-03-02T11:22:03.306Z,993.96
2018-03-02T11:23:03.237Z,993.90
2018-03-02T11:24:03.242Z,993.88
2018-03-02T11:25:03.242Z,993.83
2018-03-02T11:26:04.282Z,993.88
2018-03-02T11:27:03.282Z,993.83
2018-03-02T11:28:03.238Z,993.79
2018-03-02T11:29:03.278Z,993.83
2018-03-02T11:30:03.350Z,993.74
2018-03-02T11:31:03.236Z,993.75
2018-03-02T11:32:03.240Z,993.78
2018-03-02T11:33:03.255Z,993.80
2018-03-02T11:34:03.250Z,993.78
2018-03-02T11:35:03.240Z,993.76
2018-03-02T11:36:03.248Z,993.70
2018-03-02T11:37:03.232Z,993.94
2018-03-02T11:38:03.232Z,993.78
2018-03-02T11:39:03.255Z,993.69
2018-03-02T11:40:03.247Z,993.74
2018-03-02T11:41:03.228Z,993.73
2018-03-02T11:42:03.228Z,993.74
2018-03-02T11:43:03.222Z,993.75
2018-03-02T11:44:03.275Z,993.74
2018-03-02T11:45:03.220Z,993.73
2018-03-02T11:46:03.221Z,993.67
2018-03-02T11:47:03.275Z,993.65
2018-03-02T11:48:03.231Z,993.68
2018-03-02T11:49:03.216Z,993.62
2018-03-02T11:50:03.243Z,993.69
2018-03-02T11:51:03.225Z,993.62
2018-03-02T11:52:03.222Z,993.62
2018-03-02T11:53:03.223Z,993.61
2018-03-02T11:54:03.224Z,993.61
2018-03-02T11:55:03.218Z,993.68
2018-03-02T11:56:03.230Z,993.65
2018-03-02T11:57:03.236Z,993.64
2018-03-02T11:58:03.245Z,993.68
2018-03-02T11:59:03.212Z,993.64
2018-03-02T12:00:03.220Z,993.60
2018-03-02T12:01:03.212Z,993.67
2018-03-02T12:02:03.215Z,993.54
2018-03-02T12:03:03.217Z,993.56
2018-03-02T12:04:03.230Z,993.43
2018-03-02T12:05:03.220Z,993.48
2018-03-02T12:06:03.225Z,993.45
2018-03-02T12:07:03.216Z,993.48
2018-03-02T12:08:03.217Z,993.52
2018-03-02T12:09:03.223Z,993.59
2018-03-02T12:10:03.231Z,993.58
2018-03-02T12:11:03.226Z,993.51
2018-03-02T12:12:03.226Z,993.53
2018-03-02T12:13:03.252Z,993.56
2018-03-02T12:14:03.219Z,993.46
2018-03-02T12:15:03.209Z,993.46
2018-03-02T12:16:03.213Z,993.49
2018-03-02T12:17:03.209Z,993.46
2018-03-02T12:18:03.221Z,993.52
2018-03-02T12:19:03.209Z,993.50
2018-03-02T12:20:03.211Z,993.36
2018-03-02T12:21:03.206Z,993.38
2018-03-02T12:22:03.211Z,993.44
2018-03-02T12:23:03.216Z,993.46
2018-03-02T12:24:04.240Z,993.37
2018-03-02T12:25:03.206Z,993.43
2018-03-02T12:26:03.226Z,993.41
2018-03-02T12:27:03.217Z,993.50
2018-03-02T12:28:03.213Z,993.45
2018-03-02T12:29:03.210Z,993.53